Time;durP1;ratioP1;P1;durP2;ratioP2;P2;SDS_P1;SDS_P2;PMS_P1;PMS_P2;Temp;Humidity;BMP_temperature;BMP_pressure;BME280_temperature;BME280_humidity;BME280_pressure;Samples;Min_cycle;Max_cycle;Signal;HPM_P1;HPM_P2
2019/11/07 00:01:17;;;;;;;1.77;1.60;;;;;;;20.67;52.92;99345.32;;;;-48
2019/11/07 00:04:18;;;;;;;2.32;1.50;;;;;;;20.65;52.92;99344.17;;;;-49
2019/11/07 00:07:18;;;;;;;1.66;1.56;;;;;;;20.64;52.92;99338.11;;;;-48
2019/11/07 00:10:17;;;;;;;1.77;1.59;;;;;;;20.63;53.00;99333.32;;;;-48
2019/11/07 00:13:18;;;;;;;2.09;1.63;;;;;;;20.63;52.98;99329.47;;;;-48
2019/11/07 00:16:18;;;;;;;1.63;1.53;;;;;;;20.62;53.04;99326.69;;;;-48
2019/11/07 00:19:18;;;;;;;1.85;1.58;;;;;;;20.61;53.06;99324.30;;;;-48
2019/11/07 00:22:17;;;;;;;1.60;1.49;;;;;;;20.60;52.99;99325.47;;;;-49
2019/11/07 00:25:17;;;;;;;1.55;1.45;;;;;;;20.60;53.04;99324.03;;;;-48
2019/11/07 00:28:17;;;;;;;1.86;1.51;;;;;;;20.59;53.00;99321.42;;;;-49
2019/11/07 00:31:18;;;;;;;1.60;1.50;;;;;;;20.58;53.03;99317.18;;;;-48
2019/11/07 00:34:18;;;;;;;2.43;1.73;;;;;;;20.58;53.06;99315.61;;;;-48
2019/11/07 00:37:18;;;;;;;2.53;1.51;;;;;;;20.58;53.07;99318.19;;;;-48
2019/11/07 00:40:17;;;;;;;1.57;1.47;;;;;;;20.56;53.08;99315.32;;;;-48
2019/11/07 00:43:17;;;;;;;1.51;1.30;;;;;;;20.55;53.08;99312.42;;;;-48
2019/11/07 00:46:17;;;;;;;2.49;1.35;;;;;;;20.54;53.08;99306.89;;;;-48
2019/11/07 00:49:17;;;;;;;1.73;1.53;;;;;;;20.54;53.10;99305.78;;;;-48
2019/11/07 00:52:18;;;;;;;1.51;1.41;;;;;;;20.54;53.06;99300.99;;;;-48
2019/11/07 00:55:18;;;;;;;1.60;1.50;;;;;;;20.53;53.07;99299.30;;;;-48
2019/11/07 00:58:18;;;;;;;1.57;1.41;;;;;;;20.51;53.11;99296.36;;;;-48
2019/11/07 01:01:17;;;;;;;1.60;1.50;;;;;;;20.50;53.10;99300.86;;;;-49
2019/11/07 01:04:17;;;;;;;1.51;1.41;;;;;;;20.50;53.12;99301.03;;;;-49
2019/11/07 01:07:17;;;;;;;1.57;1.47;;;;;;;20.49;53.17;99298.83;;;;-49
2019/11/07 01:10:18;;;;;;;1.60;1.50;;;;;;;20.48;53.10;99301.06;;;;-48
2019/11/07 01:13:44;;;;;;;1.62;1.45;;;;;;;20.48;53.09;99296.84;;;;-48
2019/11/07 01:19:21;;;;;;;1.79;1.47;;;;;;;20.47;53.16;99290.88;;;;-48
2019/11/07 01:22:17;;;;;;;1.50;1.40;;;;;;;20.46;53.15;99286.83;;;;-49
2019/11/07 01:25:17;;;;;;;1.57;1.40;;;;;;;20.45;53.14;99286.16;;;;-48
2019/11/07 01:28:17;;;;;;;1.54;1.41;;;;;;;20.44;53.16;99276.92;;;;-49
2019/11/07 01:31:18;;;;;;;1.53;1.43;;;;;;;20.43;53.20;99272.88;;;;-48
2019/11/07 01:34:18;;;;;;;1.50;1.40;;;;;;;20.43;53.13;99272.44;;;;-49
2019/11/07 01:37:17;;;;;;;1.61;1.51;;;;;;;20.43;53.14;99273.52;;;;-49
2019/11/07 01:40:18;;;;;;;1.56;1.41;;;;;;;20.42;53.09;99265.45;;;;-48
2019/11/07 01:43:17;;;;;;;1.56;1.37;;;;;;;20.42;53.21;99255.89;;;;-48
2019/11/07 01:46:17;;;;;;;1.46;1.36;;;;;;;20.41;53.14;99251.95;;;;-48
2019/11/07 01:49:18;;;;;;;1.50;1.40;;;;;;;20.41;53.18;99251.61;;;;-48
2019/11/07 01:52:17;;;;;;;1.41;1.31;;;;;;;20.40;53.24;99241.36;;;;-48
2019/11/07 01:55:18;;;;;;;1.50;1.40;;;;;;;20.38;53.15;99234.20;;;;-48
2019/11/07 01:58:18;;;;;;;1.44;1.34;;;;;;;20.38;53.19;99237.22;;;;-48
2019/11/07 02:01:17;;;;;;;1.47;1.37;;;;;;;20.37;53.16;99238.03;;;;-48
2019/11/07 02:04:17;;;;;;;1.50;1.40;;;;;;;20.36;53.19;99229.53;;;;-48
2019/11/07 02:07:18;;;;;;;1.40;1.30;;;;;;;20.35;53.18;99225.08;;;;-48
2019/11/07 02:10:18;;;;;;;1.51;1.37;;;;;;;20.35;53.20;99225.92;;;;-48
2019/11/07 02:13:18;;;;;;;1.76;1.50;;;;;;;20.35;53.22;99220.97;;;;-48
2019/11/07 02:16:18;;;;;;;1.41;1.31;;;;;;;20.34;53.25;99221.71;;;;-49
2019/11/07 02:19:18;;;;;;;1.58;1.48;;;;;;;20.33;53.25;99220.19;;;;-48
2019/11/07 02:22:17;;;;;;;1.50;1.40;;;;;;;20.33;53.23;99224.61;;;;-48
2019/11/07 02:25:17;;;;;;;1.48;1.38;;;;;;;20.32;53.31;99226.20;;;;-49
2019/11/07 02:28:17;;;;;;;1.50;1.40;;;;;;;20.32;53.29;99226.00;;;;-48
2019/11/07 02:31:18;;;;;;;1.50;1.40;;;;;;;20.32;53.25;99227.70;;;;-48
2019/11/07 02:34:17;;;;;;;1.46;1.36;;;;;;;20.31;53.20;99221.38;;;;-48
2019/11/07 02:37:18;;;;;;;1.50;1.40;;;;;;;20.30;53.27;99221.80;;;;-49
2019/11/07 02:40:18;;;;;;;1.49;1.35;;;;;;;20.30;53.26;99221.02;;;;-48
2019/11/07 02:43:18;;;;;;;1.55;1.45;;;;;;;20.29;53.28;99220.77;;;;-49
2019/11/07 02:46:17;;;;;;;1.51;1.40;;;;;;;20.28;53.25;99216.55;;;;-48
2019/11/07 02:49:18;;;;;;;1.50;1.40;;;;;;;20.28;53.33;99214.71;;;;-49
2019/11/07 02:52:18;;;;;;;1.50;1.40;;;;;;;20.27;53.29;99212.17;;;;-48
2019/11/07 02:55:17;;;;;;;1.48;1.38;;;;;;;20.27;53.33;99208.80;;;;-48
2019/11/07 02:58:17;;;;;;;1.50;1.40;;;;;;;20.27;53.27;99213.83;;;;-48
2019/11/07 03:01:17;;;;;;;1.57;1.47;;;;;;;20.26;53.28;99207.60;;;;-48
2019/11/07 03:04:18;;;;;;;1.49;1.39;;;;;;;20.25;53.35;99200.49;;;;-48
2019/11/07 03:07:17;;;;;;;1.62;1.50;;;;;;;20.25;53.31;99199.70;;;;-48
2019/11/07 03:10:18;;;;;;;1.47;1.37;;;;;;;20.23;53.29;99199.78;;;;-49
2019/11/07 03:13:18;;;;;;;1.49;1.39;;;;;;;20.24;53.34;99196.16;;;;-48
2019/11/07 03:16:17;;;;;;;1.50;1.40;;;;;;;20.24;53.33;99204.80;;;;-48
2019/11/07 03:19:17;;;;;;;1.37;1.27;;;;;;;20.22;53.33;99209.48;;;;-48
2019/11/07 03:22:17;;;;;;;1.46;1.36;;;;;;;20.23;53.30;99207.06;;;;-48
2019/11/07 03:25:17;;;;;;;1.51;1.40;;;;;;;20.20;53.29;99202.91;;;;-48
2019/11/07 03:28:18;;;;;;;1.78;1.40;;;;;;;20.21;53.31;99208.53;;;;-48
2019/11/07 03:31:17;;;;;;;1.40;1.30;;;;;;;20.21;53.31;99213.89;;;;-48
2019/11/07 03:34:17;;;;;;;1.61;1.39;;;;;;;20.19;53.38;99208.58;;;;-48
2019/11/07 03:37:17;;;;;;;1.47;1.37;;;;;;;20.20;53.38;99213.88;;;;-48
2019/11/07 03:40:17;;;;;;;1.47;1.37;;;;;;;20.19;53.39;99217.70;;;;-48
2019/11/07 03:43:17;;;;;;;1.40;1.30;;;;;;;20.18;53.35;99214.50;;;;-48
2019/11/07 03:46:18;;;;;;;1.43;1.33;;;;;;;20.18;53.32;99208.30;;;;-48
2019/11/07 03:49:17;;;;;;;1.84;1.32;;;;;;;20.17;53.35;99204.08;;;;-50
2019/11/07 03:52:18;;;;;;;1.59;1.49;;;;;;;20.16;53.39;99195.92;;;;-50
2019/11/07 03:55:17;;;;;;;1.49;1.39;;;;;;;20.16;53.34;99194.07;;;;-50
2019/11/07 03:58:17;;;;;;;1.40;1.30;;;;;;;20.15;53.30;99188.28;;;;-50
2019/11/07 04:01:17;;;;;;;2.01;1.49;;;;;;;20.14;53.37;99189.70;;;;-50
2019/11/07 04:04:17;;;;;;;1.54;1.44;;;;;;;20.14;53.36;99187.09;;;;-50
2019/11/07 04:07:17;;;;;;;1.41;1.31;;;;;;;20.14;53.33;99192.55;;;;-50
2019/11/07 04:10:17;;;;;;;1.45;1.34;;;;;;;20.13;53.32;99185.22;;;;-50
2019/11/07 04:13:17;;;;;;;1.57;1.47;;;;;;;20.12;53.40;99184.80;;;;-50
2019/11/07 04:16:17;;;;;;;1.44;1.34;;;;;;;20.13;53.40;99188.34;;;;-50
2019/11/07 04:19:17;;;;;;;1.79;1.50;;;;;;;20.12;53.31;99186.48;;;;-50
2019/11/07 04:22:17;;;;;;;1.45;1.35;;;;;;;20.11;53.43;99186.95;;;;-50
2019/11/07 04:25:17;;;;;;;1.40;1.30;;;;;;;20.11;53.40;99187.19;;;;-50
2019/11/07 04:28:18;;;;;;;1.55;1.45;;;;;;;20.10;53.40;99184.42;;;;-50
2019/11/07 04:31:18;;;;;;;1.40;1.30;;;;;;;20.11;53.39;99192.66;;;;-50
2019/11/07 04:34:17;;;;;;;1.50;1.40;;;;;;;20.10;53.36;99191.87;;;;-50
2019/11/07 04:37:17;;;;;;;1.41;1.31;;;;;;;20.09;53.41;99188.92;;;;-50
2019/11/07 04:40:17;;;;;;;1.50;1.40;;;;;;;20.09;53.43;99178.20;;;;-50
2019/11/07 04:43:17;;;;;;;1.50;1.40;;;;;;;20.08;53.43;99178.75;;;;-50
2019/11/07 04:46:17;;;;;;;1.50;1.40;;;;;;;20.07;53.41;99173.47;;;;-50
2019/11/07 04:49:18;;;;;;;1.38;1.28;;;;;;;20.07;53.43;99176.31;;;;-50
2019/11/07 04:52:17;;;;;;;1.40;1.30;;;;;;;20.07;53.41;99168.03;;;;-50
2019/11/07 04:55:17;;;;;;;1.50;1.40;;;;;;;20.06;53.43;99160.03;;;;-49
2019/11/07 04:58:17;;;;;;;1.52;1.40;;;;;;;20.05;53.42;99156.83;;;;-50
2019/11/07 05:01:17;;;;;;;1.51;1.41;;;;;;;20.06;53.43;99158.77;;;;-52
2019/11/07 05:04:17;;;;;;;1.51;1.36;;;;;;;20.04;53.46;99152.95;;;;-51
2019/11/07 05:07:18;;;;;;;1.53;1.43;;;;;;;20.04;53.43;99151.55;;;;-51
2019/11/07 05:10:18;;;;;;;1.52;1.42;;;;;;;20.05;53.37;99148.11;;;;-52
2019/11/07 05:13:17;;;;;;;3.07;1.32;;;;;;;20.05;53.40;99140.81;;;;-55
2019/11/07 05:16:17;;;;;;;1.47;1.34;;;;;;;20.08;53.39;99141.14;;;;-46
2019/11/07 05:19:17;;;;;;;1.69;1.50;;;;;;;20.09;53.33;99138.88;;;;-51
2019/11/07 05:22:17;;;;;;;3.19;1.63;;;;;;;20.12;52.58;99134.42;;;;-52
2019/11/07 05:25:17;;;;;;;1.71;1.61;;;;;;;20.14;52.75;99128.86;;;;-52
2019/11/07 05:28:17;;;;;;;2.11;1.67;;;;;;;20.17;53.18;99126.55;;;;-52
2019/11/07 05:31:17;;;;;;;3.35;1.50;;;;;;;20.21;53.12;99127.06;;;;-51
2019/11/07 05:34:17;;;;;;;1.72;1.37;;;;;;;20.26;53.30;99124.45;;;;-52
2019/11/07 05:37:17;;;;;;;1.61;1.43;;;;;;;20.30;53.46;99125.37;;;;-52
2019/11/07 05:40:18;;;;;;;1.55;1.37;;;;;;;20.33;53.49;99128.14;;;;-50
2019/11/07 05:43:18;;;;;;;1.80;1.33;;;;;;;20.36;53.56;99124.84;;;;-51
2019/11/07 05:46:17;;;;;;;1.69;1.50;;;;;;;20.42;53.57;99128.88;;;;-50
2019/11/07 05:49:17;;;;;;;1.59;1.40;;;;;;;20.46;53.63;99121.67;;;;-49
2019/11/07 05:52:17;;;;;;;1.69;1.52;;;;;;;20.52;53.56;99119.95;;;;-51
2019/11/07 05:55:17;;;;;;;4.70;1.60;;;;;;;20.53;53.54;99110.64;;;;-51
2019/11/07 05:58:17;;;;;;;2.11;1.50;;;;;;;20.55;53.48;99102.94;;;;-51
2019/11/07 06:01:18;;;;;;;1.50;1.40;;;;;;;20.56;53.39;99100.38;;;;-51
2019/11/07 06:04:17;;;;;;;2.54;1.49;;;;;;;20.57;53.26;99106.69;;;;-51
2019/11/07 06:07:17;;;;;;;1.57;1.47;;;;;;;20.59;53.38;99109.64;;;;-51
2019/11/07 06:10:17;;;;;;;1.60;1.50;;;;;;;20.61;53.35;99112.88;;;;-51
2019/11/07 06:13:17;;;;;;;1.51;1.41;;;;;;;20.63;53.32;99115.50;;;;-51
2019/11/07 06:16:17;;;;;;;1.51;1.41;;;;;;;20.64;53.35;99118.30;;;;-51
2019/11/07 06:19:17;;;;;;;1.46;1.36;;;;;;;20.67;53.35;99120.03;;;;-51
2019/11/07 06:22:18;;;;;;;1.40;1.30;;;;;;;20.68;53.38;99114.17;;;;-51
2019/11/07 06:25:17;;;;;;;1.43;1.33;;;;;;;20.71;53.43;99109.70;;;;-51
2019/11/07 06:28:17;;;;;;;1.50;1.40;;;;;;;20.72;53.33;99103.23;;;;-52
2019/11/07 06:31:17;;;;;;;2.07;1.30;;;;;;;20.73;53.33;99099.47;;;;-51
2019/11/07 06:34:17;;;;;;;1.82;1.40;;;;;;;20.74;53.38;99096.66;;;;-51
2019/11/07 06:37:17;;;;;;;1.49;1.39;;;;;;;20.75;53.27;99097.09;;;;-51
2019/11/07 06:40:17;;;;;;;1.43;1.33;;;;;;;20.76;53.28;99096.19;;;;-51
2019/11/07 06:43:17;;;;;;;1.43;1.33;;;;;;;20.77;53.28;99102.32;;;;-51
2019/11/07 06:46:17;;;;;;;1.50;1.40;;;;;;;20.78;53.30;99101.00;;;;-51
2019/11/07 06:49:17;;;;;;;1.42;1.32;;;;;;;20.78;53.26;99099.92;;;;-51
2019/11/07 06:52:17;;;;;;;1.40;1.30;;;;;;;20.79;53.29;99094.91;;;;-51
2019/11/07 06:55:17;;;;;;;1.45;1.35;;;;;;;20.80;53.21;99094.35;;;;-51
2019/11/07 06:58:18;;;;;;;1.33;1.23;;;;;;;20.80;53.23;99095.53;;;;-51
2019/11/07 07:01:18;;;;;;;1.40;1.30;;;;;;;20.81;53.25;99093.27;;;;-52
2019/11/07 07:04:17;;;;;;;1.79;1.38;;;;;;;20.81;53.18;99086.98;;;;-51
2019/11/07 07:07:17;;;;;;;1.38;1.28;;;;;;;20.82;53.22;99090.00;;;;-51
2019/11/07 07:10:17;;;;;;;1.40;1.30;;;;;;;20.81;53.15;99085.98;;;;-51
2019/11/07 07:13:17;;;;;;;1.40;1.30;;;;;;;20.81;53.15;99082.55;;;;-51
2019/11/07 07:16:17;;;;;;;1.43;1.33;;;;;;;20.81;53.05;99085.63;;;;-52
2019/11/07 07:19:17;;;;;;;2.93;1.40;;;;;;;20.85;53.31;99087.20;;;;-55
2019/11/07 07:22:17;;;;;;;1.44;1.34;;;;;;;20.86;53.48;99085.38;;;;-53
2019/11/07 07:25:17;;;;;;;3.24;1.28;;;;;;;20.87;53.49;99078.84;;;;-52
2019/11/07 07:28:17;;;;;;;2.96;1.49;;;;;;;20.88;53.47;99073.52;;;;-54
2019/11/07 07:31:17;;;;;;;1.45;1.30;;;;;;;20.90;53.48;99064.55;;;;-50
2019/11/07 07:34:17;;;;;;;1.79;1.34;;;;;;;20.91;53.42;99057.35;;;;-51
2019/11/07 07:37:17;;;;;;;2.09;1.40;;;;;;;20.93;53.48;99051.77;;;;-52
2019/11/07 07:40:17;;;;;;;3.28;1.50;;;;;;;20.95;53.27;99045.84;;;;-52
2019/11/07 07:43:17;;;;;;;3.69;1.51;;;;;;;20.96;53.19;99041.05;;;;-52
2019/11/07 07:46:18;;;;;;;1.77;1.45;;;;;;;20.96;53.09;99044.52;;;;-53
2019/11/07 07:49:17;;;;;;;2.51;1.40;;;;;;;20.95;53.13;99046.17;;;;-52
2019/11/07 07:52:17;;;;;;;3.11;1.51;;;;;;;20.95;53.06;99045.09;;;;-53
2019/11/07 07:55:17;;;;;;;1.47;1.30;;;;;;;20.95;52.98;99043.05;;;;-52
2019/11/07 07:58:17;;;;;;;3.39;1.37;;;;;;;20.95;52.94;99044.16;;;;-52
2019/11/07 08:01:17;;;;;;;2.05;1.39;;;;;;;20.96;52.90;99052.47;;;;-52
2019/11/07 08:04:18;;;;;;;2.35;1.40;;;;;;;20.97;52.85;99053.94;;;;-52
2019/11/07 08:07:17;;;;;;;1.55;1.40;;;;;;;20.97;52.92;99051.48;;;;-52
2019/11/07 08:10:17;;;;;;;3.35;1.51;;;;;;;21.00;53.01;99051.97;;;;-48
2019/11/07 08:13:17;;;;;;;2.79;1.61;;;;;;;21.04;53.24;99057.70;;;;-52
2019/11/07 08:16:17;;;;;;;5.10;1.48;;;;;;;21.04;53.09;99053.44;;;;-52
2019/11/07 08:19:17;;;;;;;2.13;1.47;;;;;;;21.04;53.07;99045.91;;;;-51
2019/11/07 08:22:17;;;;;;;1.95;1.40;;;;;;;21.05;53.18;99041.63;;;;-50
2019/11/07 08:25:17;;;;;;;1.50;1.40;;;;;;;21.07;53.16;99034.52;;;;-52
2019/11/07 08:28:17;;;;;;;1.99;1.50;;;;;;;21.09;53.30;99040.09;;;;-51
2019/11/07 08:31:17;;;;;;;2.51;1.30;;;;;;;21.09;53.57;99033.97;;;;-48
2019/11/07 08:34:17;;;;;;;3.36;1.37;;;;;;;21.11;53.49;99035.41;;;;-49
2019/11/07 08:37:17;;;;;;;2.87;1.43;;;;;;;21.13;53.40;99031.25;;;;-53
2019/11/07 08:40:17;;;;;;;2.13;1.50;;;;;;;21.12;53.19;99033.58;;;;-53
2019/11/07 08:43:17;;;;;;;2.68;1.52;;;;;;;21.14;53.08;99030.93;;;;-53
2019/11/07 08:46:18;;;;;;;3.20;1.43;;;;;;;21.14;53.00;99033.02;;;;-54
2019/11/07 08:49:17;;;;;;;1.94;1.40;;;;;;;21.13;52.98;99025.64;;;;-53
2019/11/07 08:52:17;;;;;;;1.75;1.47;;;;;;;21.14;52.93;99023.54;;;;-53
2019/11/07 08:55:17;;;;;;;1.87;1.28;;;;;;;21.13;52.94;99017.91;;;;-53
2019/11/07 08:58:17;;;;;;;2.91;1.30;;;;;;;21.15;52.91;99016.91;;;;-53
2019/11/07 09:01:17;;;;;;;2.19;1.43;;;;;;;21.15;52.91;99018.09;;;;-53
2019/11/07 09:04:17;;;;;;;1.95;1.42;;;;;;;21.14;52.81;99014.47;;;;-53
2019/11/07 09:07:17;;;;;;;1.37;1.27;;;;;;;21.14;52.82;99020.17;;;;-53
2019/11/07 09:10:17;;;;;;;1.61;1.38;;;;;;;21.13;52.77;99010.42;;;;-53
2019/11/07 09:13:17;;;;;;;3.39;1.45;;;;;;;21.14;52.73;99007.33;;;;-53
2019/11/07 09:16:17;;;;;;;1.76;1.43;;;;;;;21.14;52.79;99004.00;;;;-53
2019/11/07 09:19:17;;;;;;;1.45;1.35;;;;;;;21.14;52.77;98999.63;;;;-53
2019/11/07 09:22:17;;;;;;;1.59;1.49;;;;;;;21.14;52.70;98998.60;;;;-53
2019/11/07 09:25:17;;;;;;;1.67;1.39;;;;;;;21.13;52.71;98984.91;;;;-53
2019/11/07 09:28:17;;;;;;;2.92;1.39;;;;;;;21.13;52.66;98992.12;;;;-53
2019/11/07 09:31:17;;;;;;;1.53;1.40;;;;;;;21.14;52.75;99001.28;;;;-53
2019/11/07 09:34:17;;;;;;;1.45;1.35;;;;;;;21.13;52.70;99008.58;;;;-53
2019/11/07 09:37:17;;;;;;;5.27;1.77;;;;;;;21.13;52.72;99013.52;;;;-48
2019/11/07 09:40:17;;;;;;;9.13;2.21;;;;;;;21.11;51.79;99015.17;;;;-50
2019/11/07 09:43:18;;;;;;;9.30;2.47;;;;;;;21.10;50.91;99016.53;;;;-50
2019/11/07 09:46:17;;;;;;;6.38;2.19;;;;;;;21.11;51.33;99007.79;;;;-51
2019/11/07 09:49:17;;;;;;;6.68;2.22;;;;;;;21.09;50.83;99010.97;;;;-50
2019/11/07 09:52:17;;;;;;;4.27;1.91;;;;;;;21.10;51.17;99007.61;;;;-52
2019/11/07 09:55:17;;;;;;;6.26;2.23;;;;;;;21.11;51.10;99010.14;;;;-51
2019/11/07 09:58:17;;;;;;;3.45;1.95;;;;;;;21.10;51.21;99004.92;;;;-52
2019/11/07 10:01:17;;;;;;;4.72;1.95;;;;;;;21.10;51.07;99003.60;;;;-52
2019/11/07 10:04:17;;;;;;;4.07;2.06;;;;;;;21.10;51.20;98996.89;;;;-52
2019/11/07 10:07:17;;;;;;;3.94;2.09;;;;;;;21.07;50.92;98995.93;;;;-50
2019/11/07 10:10:17;;;;;;;2.79;2.20;;;;;;;21.02;49.97;98996.27;;;;-54
2019/11/07 10:13:17;;;;;;;4.15;2.35;;;;;;;20.98;49.02;98997.31;;;;-51
2019/11/07 10:16:17;;;;;;;3.17;1.98;;;;;;;20.98;48.28;98993.53;;;;-49
2019/11/07 10:19:17;;;;;;;4.65;1.98;;;;;;;20.98;48.58;98996.98;;;;-54
2019/11/07 10:22:17;;;;;;;2.59;1.92;;;;;;;20.96;48.12;98990.91;;;;-52
2019/11/07 10:25:17;;;;;;;4.61;2.23;;;;;;;20.96;47.93;98990.31;;;;-53
2019/11/07 10:28:17;;;;;;;2.97;2.09;;;;;;;20.97;48.29;98990.89;;;;-56
2019/11/07 10:31:17;;;;;;;4.63;1.86;;;;;;;20.98;48.82;98991.51;;;;-59
2019/11/07 10:34:17;;;;;;;2.92;2.03;;;;;;;20.99;48.89;99001.77;;;;-60
2019/11/07 10:37:17;;;;;;;2.81;1.93;;;;;;;21.00;49.22;99005.73;;;;-50
2019/11/07 10:40:18;;;;;;;4.83;2.03;;;;;;;21.01;49.51;99009.52;;;;-49
2019/11/07 10:43:17;;;;;;;3.99;2.00;;;;;;;21.01;49.48;99015.98;;;;-54
2019/11/07 10:46:17;;;;;;;4.51;2.01;;;;;;;21.04;49.81;99016.87;;;;-51
2019/11/07 10:49:17;;;;;;;3.25;1.91;;;;;;;21.06;50.08;99023.49;;;;-51
2019/11/07 10:52:17;;;;;;;3.53;1.73;;;;;;;21.08;50.41;99030.50;;;;-51
2019/11/07 10:55:17;;;;;;;2.89;1.80;;;;;;;21.09;50.46;99035.55;;;;-51
2019/11/07 10:58:17;;;;;;;3.40;1.90;;;;;;;21.10;50.63;99041.88;;;;-51
2019/11/07 11:01:18;;;;;;;5.98;1.78;;;;;;;21.11;50.92;99048.50;;;;-49
2019/11/07 11:04:17;;;;;;;4.45;1.99;;;;;;;21.15;51.07;99051.02;;;;-51
2019/11/07 11:07:17;;;;;;;7.53;1.89;;;;;;;21.16;51.18;99055.39;;;;-49
2019/11/07 11:10:17;;;;;;;3.54;1.68;;;;;;;21.19;51.23;99059.36;;;;-50
2019/11/07 11:13:17;;;;;;;3.75;1.89;;;;;;;21.21;51.30;99060.14;;;;-53
2019/11/07 11:16:17;;;;;;;2.88;1.69;;;;;;;21.24;51.42;99069.02;;;;-49
2019/11/07 11:19:17;;;;;;;2.61;1.68;;;;;;;21.25;51.45;99068.36;;;;-51
2019/11/07 11:22:17;;;;;;;2.09;1.63;;;;;;;21.27;51.48;99065.51;;;;-51
2019/11/07 11:25:17;;;;;;;4.22;1.73;;;;;;;21.28;51.40;99062.42;;;;-50
2019/11/07 11:28:17;;;;;;;3.36;1.77;;;;;;;21.28;51.45;99060.84;;;;-56
2019/11/07 11:31:17;;;;;;;2.93;1.63;;;;;;;21.30;51.56;99055.64;;;;-58
2019/11/07 11:34:18;;;;;;;3.19;1.71;;;;;;;21.30;51.68;99048.35;;;;-60
2019/11/07 11:37:18;;;;;;;3.24;1.69;;;;;;;21.32;51.64;99043.02;;;;-52
2019/11/07 11:40:17;;;;;;;2.19;1.63;;;;;;;21.32;51.72;99036.29;;;;-52
2019/11/07 11:43:17;;;;;;;4.11;1.64;;;;;;;21.33;51.91;99029.92;;;;-51
2019/11/07 11:46:17;;;;;;;7.08;1.86;;;;;;;21.34;51.91;99024.66;;;;-51
2019/11/07 11:49:17;;;;;;;2.15;1.59;;;;;;;21.36;51.95;99022.24;;;;-51
2019/11/07 11:52:17;;;;;;;2.92;1.71;;;;;;;21.36;52.03;99022.07;;;;-52
2019/11/07 11:55:17;;;;;;;2.23;1.69;;;;;;;21.37;51.97;99024.41;;;;-51
2019/11/07 11:58:17;;;;;;;3.13;1.80;;;;;;;21.36;52.00;99027.55;;;;-51
2019/11/07 12:01:17;;;;;;;4.28;1.69;;;;;;;21.37;52.03;99025.61;;;;-52
2019/11/07 12:04:17;;;;;;;3.81;1.71;;;;;;;21.38;51.93;99021.74;;;;-53
2019/11/07 12:07:17;;;;;;;5.45;1.75;;;;;;;21.37;51.98;99022.50;;;;-52
2019/11/07 12:10:17;;;;;;;4.08;1.67;;;;;;;21.35;51.70;99019.47;;;;-51
2019/11/07 12:13:17;;;;;;;4.18;1.61;;;;;;;21.35;51.59;99016.70;;;;-53
2019/11/07 12:16:17;;;;;;;3.88;1.76;;;;;;;21.33;51.44;99023.55;;;;-53
2019/11/07 12:19:18;;;;;;;2.61;1.60;;;;;;;21.33;51.45;99027.06;;;;-52
2019/11/07 12:22:17;;;;;;;3.87;1.61;;;;;;;21.31;51.17;99028.14;;;;-51
2019/11/07 12:25:17;;;;;;;2.63;1.75;;;;;;;21.33;50.82;99028.98;;;;-52
2019/11/07 12:28:17;;;;;;;4.73;1.73;;;;;;;21.32;51.17;99033.60;;;;-52
2019/11/07 12:31:17;;;;;;;2.93;1.60;;;;;;;21.30;51.56;99029.05;;;;-52
2019/11/07 12:34:17;;;;;;;3.09;1.85;;;;;;;21.32;51.50;99028.91;;;;-58
2019/11/07 12:37:17;;;;;;;2.91;1.72;;;;;;;21.34;51.55;99031.62;;;;-63
2019/11/07 12:40:17;;;;;;;4.15;1.70;;;;;;;21.34;51.38;99036.75;;;;-50
2019/11/07 12:43:17;;;;;;;3.88;1.60;;;;;;;21.36;51.46;99039.68;;;;-51
2019/11/07 12:46:17;;;;;;;6.40;1.83;;;;;;;21.36;51.59;99038.34;;;;-51
2019/11/07 12:49:17;;;;;;;5.77;1.97;;;;;;;21.35;51.69;99028.37;;;;-52
2019/11/07 12:52:17;;;;;;;6.13;1.80;;;;;;;21.36;51.70;99032.97;;;;-56
2019/11/07 12:55:17;;;;;;;3.28;1.76;;;;;;;21.37;51.74;99035.42;;;;-56
2019/11/07 12:58:17;;;;;;;4.66;1.67;;;;;;;21.37;51.79;99034.59;;;;-55
2019/11/07 13:01:17;;;;;;;4.29;1.70;;;;;;;21.38;51.85;99033.09;;;;-54
2019/11/07 13:04:17;;;;;;;5.62;1.87;;;;;;;21.37;51.86;99032.33;;;;-52
2019/11/07 13:07:17;;;;;;;4.76;1.84;;;;;;;21.38;51.90;99024.63;;;;-53
2019/11/07 13:10:17;;;;;;;2.60;1.70;;;;;;;21.39;51.90;99034.64;;;;-51
2019/11/07 13:13:17;;;;;;;2.69;1.49;;;;;;;21.40;51.86;99040.00;;;;-52
2019/11/07 13:16:17;;;;;;;4.43;1.66;;;;;;;21.40;51.91;99040.44;;;;-49
2019/11/07 13:19:17;;;;;;;3.55;1.71;;;;;;;21.40;51.94;99041.61;;;;-49
2019/11/07 13:22:17;;;;;;;3.05;1.65;;;;;;;21.41;51.97;99050.95;;;;-51
2019/11/07 13:25:17;;;;;;;3.57;1.85;;;;;;;21.43;51.86;99055.23;;;;-51
2019/11/07 13:28:17;;;;;;;3.68;1.57;;;;;;;21.42;51.85;99056.25;;;;-51
2019/11/07 13:31:17;;;;;;;2.89;1.63;;;;;;;21.42;51.87;99061.53;;;;-51
2019/11/07 13:34:17;;;;;;;4.38;1.68;;;;;;;21.40;51.84;99053.97;;;;-52
2019/11/07 13:37:18;;;;;;;2.87;1.54;;;;;;;21.40;51.87;99057.39;;;;-52
2019/11/07 13:40:17;;;;;;;2.09;1.50;;;;;;;21.39;51.86;99056.97;;;;-52
2019/11/07 13:43:17;;;;;;;3.01;1.61;;;;;;;21.39;51.86;99060.33;;;;-51
2019/11/07 13:46:17;;;;;;;2.65;1.48;;;;;;;21.39;51.82;99065.11;;;;-52
2019/11/07 13:49:17;;;;;;;3.65;1.61;;;;;;;21.38;51.87;99065.67;;;;-51
2019/11/07 13:52:17;;;;;;;2.76;1.44;;;;;;;21.38;51.82;99070.54;;;;-52
2019/11/07 13:55:17;;;;;;;2.57;1.50;;;;;;;21.37;51.83;99073.73;;;;-51
2019/11/07 13:58:17;;;;;;;2.62;1.65;;;;;;;21.38;51.84;99072.96;;;;-52
2019/11/07 14:01:17;;;;;;;2.77;1.55;;;;;;;21.37;51.87;99067.02;;;;-52
2019/11/07 14:04:17;;;;;;;4.52;1.68;;;;;;;21.37;51.86;99081.11;;;;-51
2019/11/07 14:07:17;;;;;;;2.69;1.43;;;;;;;21.37;51.85;99090.44;;;;-51
2019/11/07 14:10:17;;;;;;;2.64;1.58;;;;;;;21.37;51.86;99089.84;;;;-52
2019/11/07 14:13:17;;;;;;;1.97;1.55;;;;;;;21.37;51.87;99089.91;;;;-51
2019/11/07 14:16:17;;;;;;;1.89;1.49;;;;;;;21.36;52.01;99080.08;;;;-50
2019/11/07 14:19:17;;;;;;;5.97;1.86;;;;;;;21.38;52.07;99074.42;;;;-48
2019/11/07 14:22:17;;;;;;;7.03;1.67;;;;;;;21.41;52.08;99083.03;;;;-52
2019/11/07 14:25:17;;;;;;;4.15;1.67;;;;;;;21.44;52.41;99078.09;;;;-49
2019/11/07 14:28:17;;;;;;;6.33;1.70;;;;;;;21.44;52.17;99073.05;;;;-47
2019/11/07 14:31:17;;;;;;;3.97;1.54;;;;;;;21.42;51.99;99075.83;;;;-48
2019/11/07 14:34:17;;;;;;;5.25;1.61;;;;;;;21.41;50.33;99080.66;;;;-51
2019/11/07 14:37:17;;;;;;;5.05;1.60;;;;;;;21.42;50.98;99081.75;;;;-50
2019/11/07 14:40:17;;;;;;;3.03;1.71;;;;;;;21.43;51.39;99094.03;;;;-49
2019/11/07 14:43:17;;;;;;;3.46;1.61;;;;;;;21.43;51.58;99095.97;;;;-50
2019/11/07 14:46:17;;;;;;;4.47;1.61;;;;;;;21.43;51.76;99095.13;;;;-51
2019/11/07 14:49:17;;;;;;;3.53;1.54;;;;;;;21.44;51.85;99096.83;;;;-51
2019/11/07 14:52:17;;;;;;;2.97;1.59;;;;;;;21.45;51.83;99096.17;;;;-49
2019/11/07 14:55:17;;;;;;;2.19;1.46;;;;;;;21.45;51.84;99090.29;;;;-49
2019/11/07 14:58:17;;;;;;;3.27;1.53;;;;;;;21.46;51.92;99099.11;;;;-59
2019/11/07 15:01:17;;;;;;;3.27;1.50;;;;;;;21.47;51.93;99107.02;;;;-58
2019/11/07 15:04:17;;;;;;;1.94;1.40;;;;;;;21.47;51.99;99108.30;;;;-58
2019/11/07 15:07:17;;;;;;;3.15;1.53;;;;;;;21.47;52.03;99103.18;;;;-53
2019/11/07 15:10:17;;;;;;;2.99;1.50;;;;;;;21.48;52.09;99103.59;;;;-51
2019/11/07 15:13:17;;;;;;;2.82;1.46;;;;;;;21.49;52.13;99110.00;;;;-49
2019/11/07 15:16:17;;;;;;;1.64;1.50;;;;;;;21.49;52.11;99117.72;;;;-50
2019/11/07 15:19:17;;;;;;;4.26;1.55;;;;;;;21.50;52.23;99121.20;;;;-62
2019/11/07 15:22:17;;;;;;;1.56;1.44;;;;;;;21.51;52.10;99130.52;;;;-59
2019/11/07 15:25:17;;;;;;;2.37;1.65;;;;;;;21.51;52.11;99127.00;;;;-57
2019/11/07 15:28:17;;;;;;;3.09;1.39;;;;;;;21.51;52.14;99138.42;;;;-58
2019/11/07 15:31:17;;;;;;;2.25;1.41;;;;;;;21.52;52.23;99143.70;;;;-49
2019/11/07 15:34:17;;;;;;;2.35;1.50;;;;;;;21.52;52.24;99144.13;;;;-60
2019/11/07 15:37:17;;;;;;;6.91;1.55;;;;;;;21.53;52.21;99147.25;;;;-60
2019/11/07 15:40:17;;;;;;;3.75;1.46;;;;;;;21.52;52.23;99154.63;;;;-59
2019/11/07 15:43:17;;;;;;;3.15;1.45;;;;;;;21.50;52.25;99166.54;;;;-53
2019/11/07 15:46:17;;;;;;;3.87;1.56;;;;;;;21.50;52.25;99168.80;;;;-52
2019/11/07 15:49:17;;;;;;;3.05;1.40;;;;;;;21.51;52.26;99172.02;;;;-52
2019/11/07 15:52:17;;;;;;;1.80;1.36;;;;;;;21.51;52.24;99177.89;;;;-52
2019/11/07 15:55:17;;;;;;;2.86;1.50;;;;;;;21.51;52.31;99183.77;;;;-52
2019/11/07 15:58:17;;;;;;;2.62;1.43;;;;;;;21.52;52.28;99189.83;;;;-51
2019/11/07 16:01:17;;;;;;;2.85;1.50;;;;;;;21.51;52.36;99197.80;;;;-51
2019/11/07 16:04:17;;;;;;;3.42;1.50;;;;;;;21.52;52.39;99197.89;;;;-49
2019/11/07 16:07:17;;;;;;;2.63;1.47;;;;;;;21.53;52.35;99202.11;;;;-50
2019/11/07 16:10:19;;;;;;;4.23;1.54;;;;;;;21.53;52.23;99204.55;;;;-51
2019/11/07 16:16:24;;;;;;;2.69;1.31;;;;;;;21.52;52.27;99210.22;;;;-51
2019/11/07 16:19:17;;;;;;;1.40;1.30;;;;;;;21.50;52.19;99211.46;;;;-51
2019/11/07 16:22:17;;;;;;;2.57;1.30;;;;;;;21.50;52.15;99214.98;;;;-51
2019/11/07 16:25:17;;;;;;;2.45;1.40;;;;;;;21.49;52.20;99215.64;;;;-50
2019/11/07 16:28:17;;;;;;;4.71;1.43;;;;;;;21.48;52.21;99220.50;;;;-51
2019/11/07 16:31:17;;;;;;;1.67;1.51;;;;;;;21.48;52.17;99224.47;;;;-50
2019/11/07 16:34:17;;;;;;;2.15;1.40;;;;;;;21.47;52.14;99225.87;;;;-50
2019/11/07 16:37:17;;;;;;;2.30;1.42;;;;;;;21.47;52.17;99238.97;;;;-51
2019/11/07 16:40:17;;;;;;;2.33;1.46;;;;;;;21.46;52.18;99248.02;;;;-51
2019/11/07 16:43:17;;;;;;;2.72;1.37;;;;;;;21.46;52.14;99250.61;;;;-50
2019/11/07 16:46:17;;;;;;;1.58;1.40;;;;;;;21.45;52.15;99253.54;;;;-50
2019/11/07 16:49:17;;;;;;;1.85;1.33;;;;;;;21.44;52.15;99260.58;;;;-51
2019/11/07 16:52:17;;;;;;;1.94;1.38;;;;;;;21.44;52.15;99265.52;;;;-50
2019/11/07 16:55:17;;;;;;;1.97;1.32;;;;;;;21.43;52.18;99270.41;;;;-50
2019/11/07 16:58:17;;;;;;;2.71;1.36;;;;;;;21.42;52.15;99280.56;;;;-50
2019/11/07 17:01:17;;;;;;;1.81;1.39;;;;;;;21.42;52.15;99287.69;;;;-51